Time;durP1;ratioP1;P1;durP2;ratioP2;P2;SDS_P1;SDS_P2;PMS_P1;PMS_P2;Temp;Humidity;BMP_temperature;BMP_pressure;BME280_temperature;BME280_humidity;BME280_pressure;Samples;Min_cycle;Max_cycle;Signal;HPM_P1;HPM_P2
2022/04/22 00:02:18;;;;;;;10.90;4.45;;;9.20;99.90;;;;;;4987891;28;20105;-63
2022/04/22 00:04:44;;;;;;;10.45;3.20;;;9.20;99.90;;;;;;4987538;28;20113;-63
2022/04/22 00:07:11;;;;;;;10.57;3.90;;;9.20;99.90;;;;;;4988350;28;20033;-63
2022/04/22 00:09:37;;;;;;;11.68;3.92;;;9.30;99.90;;;;;;4988531;28;20026;-63
2022/04/22 00:12:03;;;;;;;12.68;3.33;;;9.40;99.90;;;;;;4989015;28;20038;-63
2022/04/22 00:14:29;;;;;;;9.77;3.53;;;9.40;99.90;;;;;;4987174;28;20030;-63
2022/04/22 00:16:54;;;;;;;8.68;3.60;;;9.60;99.90;;;;;;4989068;28;20026;-63
2022/04/22 00:19:20;;;;;;;9.52;3.00;;;9.70;99.90;;;;;;4982796;28;20069;-63
2022/04/22 00:21:47;;;;;;;13.75;3.80;;;9.80;99.90;;;;;;4988726;28;20125;-63
2022/04/22 00:24:14;;;;;;;10.65;3.33;;;10.00;99.90;;;;;;4986732;28;20545;-63
2022/04/22 00:26:40;;;;;;;9.52;3.25;;;10.00;99.90;;;;;;4988769;28;20022;-63
2022/04/22 00:29:05;;;;;;;14.13;4.43;;;10.10;99.90;;;;;;4986044;28;20034;-63
2022/04/22 00:31:31;;;;;;;10.05;3.35;;;10.00;99.90;;;;;;4987917;28;20100;-63
2022/04/22 00:33:57;;;;;;;9.25;3.05;;;9.80;99.90;;;;;;4988743;28;20026;-63
2022/04/22 00:36:23;;;;;;;11.05;4.28;;;9.80;99.90;;;;;;4991148;28;20041;-63
2022/04/22 00:38:49;;;;;;;10.23;3.90;;;9.70;99.90;;;;;;4991326;28;20030;-63
2022/04/22 00:41:15;;;;;;;11.90;3.35;;;9.70;99.90;;;;;;4987379;28;20057;-63
2022/04/22 00:43:45;;;;;;;10.50;4.18;;;9.60;99.90;;;;;;4988331;28;20109;-63
2022/04/22 00:46:12;;;;;;;14.30;4.32;;;9.50;99.90;;;;;;4988586;28;20041;-63
2022/04/22 00:48:38;;;;;;;13.48;3.55;;;9.50;99.90;;;;;;4984955;28;20030;-63
2022/04/22 00:51:05;;;;;;;11.20;3.92;;;9.60;99.90;;;;;;4987901;28;20105;-63
2022/04/22 00:53:35;;;;;;;10.02;3.85;;;9.70;99.90;;;;;;4984479;28;20030;-63
2022/04/22 00:56:03;;;;;;;11.02;3.85;;;9.70;99.90;;;;;;4987745;28;20026;-63
2022/04/22 00:58:29;;;;;;;11.13;3.95;;;9.80;99.90;;;;;;4982299;28;20033;-63
2022/04/22 01:00:54;;;;;;;10.77;4.22;;;9.80;99.90;;;;;;4987565;28;20030;-63
2022/04/22 01:03:20;;;;;;;9.88;3.38;;;9.80;99.90;;;;;;4987396;28;20058;-63
2022/04/22 01:11:18;;;;;;;9.35;4.38;;;9.80;99.90;;;;;;4984905;28;20089;-63
2022/04/22 01:13:44;;;;;;;13.88;4.43;;;9.90;99.90;;;;;;4987659;28;20042;-63
2022/04/22 01:16:10;;;;;;;9.90;4.22;;;9.80;99.90;;;;;;4989305;28;20022;-63
2022/04/22 01:18:37;;;;;;;12.98;4.18;;;9.90;99.90;;;;;;4989028;28;20036;-63
2022/04/22 01:21:03;;;;;;;13.05;4.25;;;9.80;99.90;;;;;;4983334;28;20534;-63
2022/04/22 01:23:29;;;;;;;13.27;4.50;;;9.80;99.90;;;;;;4986000;28;20057;-63
2022/04/22 01:25:56;;;;;;;9.15;3.05;;;9.60;99.90;;;;;;4988944;28;20022;-63
2022/04/22 01:28:23;;;;;;;12.43;4.28;;;9.50;99.90;;;;;;4981919;28;20144;-63
2022/04/22 01:30:57;;;;;;;11.60;4.43;;;9.40;99.90;;;;;;4985476;28;20514;-63
2022/04/22 01:33:23;;;;;;;13.38;5.60;;;9.30;99.90;;;;;;4986017;28;20046;-63
2022/04/22 01:35:48;;;;;;;10.55;3.97;;;9.10;99.90;;;;;;4984448;28;20049;-63
2022/04/22 01:38:14;;;;;;;10.30;4.55;;;9.10;99.90;;;;;;4986543;28;20149;-62
2022/04/22 01:40:39;;;;;;;15.02;4.38;;;9.00;99.90;;;;;;4986985;28;20694;-62
2022/04/22 01:43:05;;;;;;;14.57;4.75;;;9.10;99.90;;;;;;4987075;28;20573;-61
2022/04/22 01:45:31;;;;;;;11.25;4.78;;;9.00;99.90;;;;;;4986611;28;20038;-62
2022/04/22 01:47:57;;;;;;;12.73;5.13;;;9.00;99.90;;;;;;4986148;28;20034;-62
2022/04/22 01:50:23;;;;;;;12.77;4.35;;;8.90;99.90;;;;;;4986497;28;20547;-63
2022/04/22 01:52:49;;;;;;;10.98;4.07;;;8.90;99.90;;;;;;4986738;28;20038;-63
2022/04/22 01:55:15;;;;;;;15.05;5.20;;;8.90;99.90;;;;;;4985734;28;20030;-62
2022/04/22 01:57:41;;;;;;;13.25;4.55;;;8.80;99.90;;;;;;4988007;28;20037;-62
2022/04/22 02:00:08;;;;;;;16.98;5.55;;;8.80;99.90;;;;;;4990724;28;20026;-62
2022/04/22 02:02:33;;;;;;;14.63;4.85;;;8.80;99.90;;;;;;4980463;28;20034;-63
2022/04/22 02:04:59;;;;;;;13.13;4.72;;;8.80;99.90;;;;;;4981878;28;20045;-63
2022/04/22 02:07:24;;;;;;;13.88;4.30;;;8.80;99.90;;;;;;4987827;28;20030;-61
2022/04/22 02:09:50;;;;;;;12.95;3.75;;;8.80;99.90;;;;;;4984498;28;20483;-62
2022/04/22 02:12:16;;;;;;;13.20;5.18;;;8.80;99.90;;;;;;4986216;28;20030;-62
2022/04/22 02:14:41;;;;;;;10.82;4.88;;;8.70;99.90;;;;;;4986411;28;20396;-62
2022/04/22 02:17:07;;;;;;;13.75;4.13;;;8.70;99.90;;;;;;4986857;28;20086;-62
2022/04/22 02:19:33;;;;;;;11.20;4.30;;;8.60;99.90;;;;;;4985771;28;20122;-62
2022/04/22 02:21:58;;;;;;;16.08;5.70;;;8.70;99.90;;;;;;4987301;28;20069;-62
2022/04/22 02:24:24;;;;;;;10.73;3.90;;;8.60;99.90;;;;;;4985983;28;20037;-62
2022/04/22 02:29:34;;;;;;;17.08;5.30;;;8.60;99.90;;;;;;4984421;28;20045;-63
2022/04/22 02:31:59;;;;;;;9.98;4.28;;;8.50;99.90;;;;;;4982865;28;20050;-63
2022/04/22 02:34:25;;;;;;;13.77;4.15;;;8.40;99.90;;;;;;4986011;28;20449;-62
2022/04/22 02:36:51;;;;;;;15.20;6.50;;;8.40;99.90;;;;;;4989115;28;20101;-63
2022/04/22 02:39:18;;;;;;;13.15;4.82;;;8.30;99.90;;;;;;4993795;28;20093;-63
2022/04/22 02:47:13;;;;;;;20.60;5.47;;;8.20;99.90;;;;;;4989531;28;20113;-62
2022/04/22 02:49:43;;;;;;;13.02;4.22;;;8.20;99.90;;;;;;4989918;28;20213;-61
2022/04/22 02:52:09;;;;;;;9.90;3.47;;;8.20;99.90;;;;;;4986642;28;20541;-63
2022/04/22 02:54:34;;;;;;;15.98;5.55;;;8.20;99.90;;;;;;4989717;28;20073;-62
2022/04/22 02:57:00;;;;;;;16.27;5.97;;;8.10;99.90;;;;;;4989127;28;20031;-62
2022/04/22 02:59:28;;;;;;;14.70;4.93;;;8.10;99.90;;;;;;4986980;28;20034;-62
2022/04/22 03:01:54;;;;;;;11.65;4.53;;;8.10;99.90;;;;;;4986682;28;20379;-63
2022/04/22 03:04:20;;;;;;;16.90;5.28;;;8.10;99.90;;;;;;4989370;28;20033;-61
2022/04/22 03:06:46;;;;;;;13.32;4.75;;;8.10;99.90;;;;;;4983677;28;20030;-62
2022/04/22 03:09:11;;;;;;;15.95;5.78;;;8.10;99.90;;;;;;4989829;28;20406;-62
2022/04/22 03:11:37;;;;;;;14.45;5.13;;;8.00;99.90;;;;;;4986609;28;20034;-62
2022/04/22 03:14:05;;;;;;;22.25;6.65;;;8.00;99.90;;;;;;4989876;28;20043;-62
2022/04/22 03:16:32;;;;;;;17.80;6.13;;;7.90;99.90;;;;;;4989993;28;20105;-62
2022/04/22 03:18:59;;;;;;;12.57;5.50;;;8.00;99.90;;;;;;4995242;28;20029;-62
2022/04/22 03:21:25;;;;;;;20.02;6.47;;;8.00;99.90;;;;;;4992914;28;20378;-61
2022/04/22 03:23:51;;;;;;;16.88;5.03;;;7.90;99.90;;;;;;4988877;28;20030;-62
2022/04/22 03:26:17;;;;;;;11.90;4.97;;;7.90;99.90;;;;;;4990211;28;20161;-62
2022/04/22 03:28:42;;;;;;;16.70;5.68;;;7.90;99.90;;;;;;4986977;28;20027;-62
2022/04/22 03:31:08;;;;;;;20.73;7.22;;;7.80;99.90;;;;;;4987886;28;20042;-62
2022/04/22 03:33:34;;;;;;;13.35;5.53;;;7.80;99.90;;;;;;4983003;28;20033;-62
2022/04/22 03:35:59;;;;;;;13.48;5.30;;;7.70;99.90;;;;;;5008627;28;20026;-62
2022/04/22 03:38:27;;;;;;;12.88;5.43;;;7.70;99.90;;;;;;4986678;28;20077;-62
2022/04/22 03:40:53;;;;;;;11.13;4.50;;;7.70;99.90;;;;;;4986958;28;20041;-61
2022/04/22 03:43:19;;;;;;;16.05;6.65;;;7.70;99.90;;;;;;4988569;28;20972;-62
2022/04/22 03:45:45;;;;;;;16.98;5.47;;;7.70;99.90;;;;;;4987150;28;20398;-62
2022/04/22 03:48:13;;;;;;;17.63;7.10;;;7.80;99.90;;;;;;5003470;28;20037;-62
2022/04/22 03:50:39;;;;;;;16.77;6.00;;;7.80;99.90;;;;;;4987845;28;20497;-62
2022/04/22 03:53:06;;;;;;;16.55;5.57;;;8.00;99.90;;;;;;4988300;28;20030;-62
2022/04/22 03:55:32;;;;;;;15.95;6.18;;;8.00;99.90;;;;;;4987047;28;20681;-63
2022/04/22 03:58:10;;;;;;;19.50;7.85;;;8.20;99.90;;;;;;4985492;28;20052;-63
2022/04/22 04:00:50;;;;;;;18.33;6.30;;;8.30;99.90;;;;;;4988429;28;20105;-63
2022/04/22 04:03:23;;;;;;;13.98;6.00;;;8.40;99.90;;;;;;4989639;28;20050;-63
2022/04/22 04:05:51;;;;;;;16.00;6.25;;;8.50;99.90;;;;;;4989015;28;20041;-63
2022/04/22 04:08:24;;;;;;;14.55;6.50;;;8.60;99.90;;;;;;4988200;28;20077;-63
2022/04/22 04:16:19;;;;;;;16.95;8.02;;;8.60;99.90;;;;;;4989175;28;20041;-63
2022/04/22 04:18:44;;;;;;;20.88;6.20;;;8.60;99.90;;;;;;4987035;28;20030;-63
2022/04/22 04:23:59;;;;;;;22.88;7.93;;;8.50;99.90;;;;;;4987263;28;20556;-63
2022/04/22 04:26:25;;;;;;;19.85;8.00;;;8.60;99.90;;;;;;4981563;28;20609;-63
2022/04/22 04:28:52;;;;;;;16.95;6.35;;;8.60;99.90;;;;;;4984906;28;20034;-63
2022/04/22 04:31:19;;;;;;;23.02;7.43;;;8.70;99.90;;;;;;4985763;28;20128;-63
2022/04/22 04:33:45;;;;;;;19.83;7.78;;;8.70;99.90;;;;;;4984804;28;20026;-63
2022/04/22 04:36:11;;;;;;;24.95;7.68;;;8.80;99.90;;;;;;4986656;28;20101;-63
2022/04/22 04:38:41;;;;;;;21.85;8.23;;;8.90;99.90;;;;;;4985943;28;20030;-63
2022/04/22 04:41:08;;;;;;;26.48;7.47;;;8.90;99.90;;;;;;4983190;28;20048;-63
2022/04/22 04:43:35;;;;;;;13.93;6.20;;;9.00;99.90;;;;;;4985333;28;20085;-63
2022/04/22 04:46:02;;;;;;;25.00;8.05;;;9.00;99.90;;;;;;4986617;28;20033;-63
2022/04/22 04:48:28;;;;;;;17.70;7.53;;;9.10;99.90;;;;;;4983511;28;20030;-63
2022/04/22 04:50:55;;;;;;;19.52;6.68;;;9.20;99.90;;;;;;4987035;28;20465;-63
2022/04/22 04:53:23;;;;;;;12.68;5.13;;;9.20;99.90;;;;;;4988358;28;20457;-64
2022/04/22 04:55:50;;;;;;;16.67;6.95;;;9.30;99.90;;;;;;5001536;28;20470;-63
2022/04/22 04:58:16;;;;;;;21.13;5.95;;;9.30;99.90;;;;;;4985557;28;20389;-63
2022/04/22 05:00:44;;;;;;;19.70;7.38;;;9.40;99.90;;;;;;4985205;28;20121;-63
2022/04/22 05:03:10;;;;;;;15.32;5.50;;;9.40;99.90;;;;;;4988159;28;20096;-63
2022/04/22 05:05:36;;;;;;;14.32;6.55;;;9.40;99.90;;;;;;4986575;28;20018;-63
2022/04/22 05:08:02;;;;;;;17.63;7.07;;;9.40;99.90;;;;;;4987275;28;20088;-63
2022/04/22 05:10:30;;;;;;;17.27;8.18;;;9.50;99.90;;;;;;4985958;28;20106;-63
2022/04/22 05:12:56;;;;;;;19.98;7.63;;;9.50;99.90;;;;;;4985225;28;20473;-63
2022/04/22 05:15:23;;;;;;;17.95;7.85;;;9.50;99.90;;;;;;4985977;28;20054;-63
2022/04/22 05:17:50;;;;;;;17.90;7.57;;;9.60;99.90;;;;;;4985739;28;20038;-63
2022/04/22 05:20:17;;;;;;;18.98;7.35;;;9.60;99.90;;;;;;4986930;28;20027;-63
2022/04/22 05:22:44;;;;;;;23.13;9.32;;;9.60;99.90;;;;;;4986097;28;20048;-63
2022/04/22 05:25:11;;;;;;;24.38;7.50;;;9.50;99.90;;;;;;4984456;28;20029;-63
2022/04/22 05:27:37;;;;;;;20.92;8.30;;;9.50;99.90;;;;;;4984151;28;20478;-63
2022/04/22 05:32:49;;;;;;;20.27;8.48;;;9.70;99.90;;;;;;4986079;28;20069;-63
2022/04/22 05:35:16;;;;;;;18.92;7.38;;;9.90;99.90;;;;;;4989107;28;20022;-63
2022/04/22 05:37:45;;;;;;;17.67;7.28;;;9.90;99.90;;;;;;4989131;28;20049;-63
2022/04/22 05:40:12;;;;;;;17.38;7.22;;;9.90;99.90;;;;;;4986018;28;20030;-63
2022/04/22 05:42:38;;;;;;;15.90;6.10;;;9.90;99.90;;;;;;4984144;28;20072;-63
2022/04/22 05:45:06;;;;;;;19.73;6.32;;;9.90;99.90;;;;;;4986744;28;20026;-63
2022/04/22 05:47:32;;;;;;;17.38;6.82;;;10.00;99.90;;;;;;4982776;28;20030;-63
2022/04/22 05:49:58;;;;;;;14.10;6.22;;;10.00;99.90;;;;;;4986585;28;20022;-63
2022/04/22 05:52:24;;;;;;;18.05;6.95;;;9.90;99.90;;;;;;4986391;28;20044;-63
2022/04/22 05:54:49;;;;;;;17.13;6.80;;;9.90;99.90;;;;;;4986379;28;20455;-63
2022/04/22 05:57:15;;;;;;;18.30;6.63;;;10.00;99.90;;;;;;4981535;28;20030;-63
2022/04/22 05:59:41;;;;;;;21.10;6.93;;;9.90;99.90;;;;;;4986586;28;20050;-65
2022/04/22 06:02:07;;;;;;;21.77;7.72;;;10.10;99.90;;;;;;4977174;28;20062;-63
2022/04/22 06:04:33;;;;;;;20.45;7.75;;;10.00;99.90;;;;;;4986143;28;20046;-63
2022/04/22 06:06:59;;;;;;;16.75;6.25;;;10.00;99.90;;;;;;4986586;28;20808;-63
2022/04/22 06:12:09;;;;;;;16.50;5.90;;;10.20;99.90;;;;;;4988627;28;20084;-63
2022/04/22 06:14:35;;;;;;;16.48;5.95;;;10.40;99.90;;;;;;4986060;28;20034;-63
2022/04/22 06:17:01;;;;;;;15.38;5.97;;;10.30;99.90;;;;;;4991626;28;20026;-63
2022/04/22 06:19:26;;;;;;;16.33;6.93;;;10.20;99.90;;;;;;4993888;28;20501;-63
2022/04/22 06:21:52;;;;;;;18.90;7.00;;;10.40;99.90;;;;;;4991065;28;20450;-63
2022/04/22 06:24:18;;;;;;;15.00;5.55;;;10.40;99.90;;;;;;4982078;28;20498;-63
2022/04/22 06:26:43;;;;;;;14.07;5.25;;;10.30;99.90;;;;;;4988034;28;20465;-63
2022/04/22 06:29:09;;;;;;;11.98;4.55;;;10.40;99.90;;;;;;4987158;28;20038;-63
2022/04/22 06:31:35;;;;;;;15.55;6.15;;;10.60;99.90;;;;;;4985864;28;20561;-64
2022/04/22 06:34:02;;;;;;;19.63;5.90;;;10.70;99.90;;;;;;4983919;28;20041;-64
2022/04/22 06:36:29;;;;;;;16.92;5.55;;;10.80;99.90;;;;;;4986630;28;20037;-63
2022/04/22 06:38:58;;;;;;;14.10;5.13;;;11.00;99.90;;;;;;4983589;28;20468;-62
2022/04/22 06:46:53;;;;;;;13.18;5.43;;;11.30;99.90;;;;;;4986910;28;20038;-63
2022/04/22 06:49:19;;;;;;;11.57;5.03;;;11.40;99.90;;;;;;4990646;28;20033;-63
2022/04/22 06:51:45;;;;;;;13.93;5.47;;;11.70;99.90;;;;;;4984412;28;20030;-63
2022/04/22 06:54:11;;;;;;;13.13;5.00;;;11.80;99.90;;;;;;4986068;28;20030;-63
2022/04/22 06:56:39;;;;;;;12.18;4.85;;;11.90;99.90;;;;;;4987836;28;20046;-63
2022/04/22 06:59:05;;;;;;;12.40;5.72;;;12.00;99.90;;;;;;4987091;28;20034;-63
2022/04/22 07:01:31;;;;;;;13.20;5.07;;;12.00;99.90;;;;;;4988704;28;20553;-63
2022/04/22 07:03:58;;;;;;;16.48;5.18;;;12.00;99.90;;;;;;4988777;28;20031;-63
2022/04/22 07:06:24;;;;;;;12.32;4.32;;;11.70;99.90;;;;;;4991264;28;20030;-63
2022/04/22 07:08:50;;;;;;;14.65;5.00;;;11.70;99.90;;;;;;4990166;28;20027;-63
2022/04/22 07:11:25;;;;;;;12.05;4.43;;;11.50;99.90;;;;;;4984155;28;20034;-63
2022/04/22 07:13:52;;;;;;;13.98;5.32;;;11.90;99.90;;;;;;4988413;28;20426;-63
2022/04/22 07:16:20;;;;;;;17.58;6.35;;;11.80;99.90;;;;;;4991730;28;20655;-63
2022/04/22 07:18:46;;;;;;;14.20;5.72;;;11.90;99.90;;;;;;4982178;28;20140;-64
2022/04/22 07:21:11;;;;;;;14.23;6.20;;;12.10;99.90;;;;;;4983283;28;20034;-64
2022/04/22 07:23:37;;;;;;;14.27;5.05;;;11.90;99.90;;;;;;4997713;28;20033;-64
2022/04/22 07:26:15;;;;;;;15.48;4.72;;;12.10;99.90;;;;;;4980907;28;20030;-63
2022/04/22 07:28:41;;;;;;;14.13;5.40;;;12.10;99.90;;;;;;4979651;28;20022;-63
2022/04/22 07:31:09;;;;;;;13.90;4.93;;;11.90;99.90;;;;;;4979926;28;20599;-64
2022/04/22 07:33:35;;;;;;;13.15;5.05;;;12.20;99.90;;;;;;4981045;28;20027;-63
2022/04/22 07:36:01;;;;;;;17.48;6.00;;;12.20;99.90;;;;;;4979172;28;20053;-63
2022/04/22 07:38:28;;;;;;;15.93;5.65;;;12.20;99.90;;;;;;5017696;28;20034;-63
2022/04/22 07:40:54;;;;;;;11.05;3.58;;;12.30;99.90;;;;;;4987378;28;20425;-63
2022/04/22 07:48:58;;;;;;;12.70;5.40;;;12.50;99.90;;;;;;4988730;28;20401;-63
2022/04/22 07:51:27;;;;;;;12.40;4.32;;;12.40;99.90;;;;;;4983347;28;20073;-63
2022/04/22 07:53:55;;;;;;;11.27;4.97;;;12.80;99.90;;;;;;4979132;28;20035;-64
2022/04/22 07:56:21;;;;;;;14.88;5.00;;;13.50;99.90;;;;;;4982894;28;20030;-64
2022/04/22 07:58:47;;;;;;;13.02;5.07;;;13.40;99.90;;;;;;4975284;28;20030;-64
2022/04/22 08:01:12;;;;;;;13.45;4.63;;;13.50;99.90;;;;;;4978153;28;20080;-64
2022/04/22 08:03:38;;;;;;;10.85;4.22;;;13.60;99.90;;;;;;4978722;28;20027;-64
2022/04/22 08:06:06;;;;;;;12.48;4.45;;;13.70;99.90;;;;;;4982450;28;20030;-64
2022/04/22 08:08:32;;;;;;;10.15;4.03;;;14.00;99.90;;;;;;4978081;28;20026;-63
2022/04/22 08:10:58;;;;;;;10.18;3.88;;;13.90;99.90;;;;;;4978850;28;20045;-63
2022/04/22 08:13:25;;;;;;;13.68;5.38;;;13.90;99.90;;;;;;4981864;28;20035;-63
2022/04/22 08:15:51;;;;;;;12.27;4.80;;;13.10;99.90;;;;;;4979508;28;20038;-62
2022/04/22 08:18:17;;;;;;;13.48;4.40;;;13.40;99.90;;;;;;4982009;28;20038;-63
2022/04/22 08:20:43;;;;;;;11.05;4.05;;;12.90;99.90;;;;;;4982610;28;20030;-63
2022/04/22 08:23:08;;;;;;;12.90;4.15;;;13.40;99.90;;;;;;4979668;28;20038;-63
2022/04/22 08:25:34;;;;;;;12.15;3.58;;;14.10;99.90;;;;;;4977470;28;20042;-63
2022/04/22 08:28:02;;;;;;;13.35;4.88;;;14.70;99.90;;;;;;4977696;28;20037;-64
2022/04/22 08:30:28;;;;;;;13.07;4.53;;;14.70;99.90;;;;;;4979418;28;20050;-63
2022/04/22 08:32:53;;;;;;;15.45;5.38;;;13.90;99.90;;;;;;4995415;28;20039;-63
2022/04/22 08:35:19;;;;;;;14.45;5.28;;;13.70;99.90;;;;;;4976634;28;20339;-63
2022/04/22 08:37:45;;;;;;;12.88;4.75;;;13.70;99.90;;;;;;4977344;28;20402;-63
2022/04/22 08:40:12;;;;;;;14.07;4.88;;;13.80;99.90;;;;;;4980759;28;20022;-63
2022/04/22 08:42:39;;;;;;;14.60;5.22;;;13.30;99.90;;;;;;4995444;28;20084;-63
2022/04/22 08:45:11;;;;;;;13.77;6.43;;;13.30;99.90;;;;;;4980170;28;20093;-62
2022/04/22 08:50:29;;;;;;;15.73;5.97;;;13.30;99.90;;;;;;4984007;28;20097;-63
2022/04/22 08:53:06;;;;;;;13.88;5.30;;;13.30;99.90;;;;;;4986996;28;20038;-63
2022/04/22 08:55:34;;;;;;;14.02;5.65;;;13.50;99.90;;;;;;4982342;28;20034;-63
2022/04/22 08:58:00;;;;;;;15.32;6.93;;;13.40;99.90;;;;;;4986493;28;20359;-64
2022/04/22 09:00:27;;;;;;;12.70;5.20;;;13.30;99.90;;;;;;4990706;28;20030;-63
2022/04/22 09:02:57;;;;;;;16.13;6.60;;;13.90;99.90;;;;;;4984643;28;20371;-64
2022/04/22 09:05:24;;;;;;;12.85;5.95;;;13.50;99.90;;;;;;5003214;28;20026;-64
2022/04/22 09:07:51;;;;;;;14.05;5.57;;;13.50;99.90;;;;;;4988070;28;20427;-63
2022/04/22 09:10:17;;;;;;;12.77;5.25;;;14.10;99.90;;;;;;4987637;28;20030;-64
2022/04/22 09:12:54;;;;;;;16.48;5.90;;;14.80;99.90;;;;;;4985385;28;20026;-64
2022/04/22 09:15:24;;;;;;;11.35;4.93;;;14.50;99.90;;;;;;4982666;28;20037;-64
2022/04/22 09:17:57;;;;;;;13.70;5.82;;;15.20;99.90;;;;;;4983334;28;20065;-64
2022/04/22 09:20:29;;;;;;;10.90;4.53;;;15.80;99.90;;;;;;4982089;28;20041;-64
2022/04/22 09:22:56;;;;;;;14.38;5.05;;;16.10;99.90;;;;;;4986642;28;20030;-64
2022/04/22 09:25:25;;;;;;;10.07;4.10;;;16.00;99.90;;;;;;4985508;28;20426;-64
2022/04/22 09:27:51;;;;;;;11.18;4.20;;;16.10;99.90;;;;;;4985059;28;20057;-64
2022/04/22 09:30:17;;;;;;;9.40;3.85;;;15.60;99.90;;;;;;4979596;28;20050;-64
2022/04/22 09:32:44;;;;;;;7.93;2.97;;;15.50;99.90;;;;;;4975809;28;20027;-64
2022/04/22 09:35:20;;;;;;;15.43;4.47;;;14.40;99.90;;;;;;4978652;28;20088;-64
2022/04/22 09:43:48;;;;;;;12.15;3.67;;;14.10;99.90;;;;;;4998208;28;20483;-63
2022/04/22 09:46:23;;;;;;;8.90;3.40;;;14.30;99.90;;;;;;4980945;28;20406;-63
2022/04/22 09:48:49;;;;;;;9.93;3.28;;;14.50;99.90;;;;;;4976860;28;20026;-63
2022/04/22 09:51:30;;;;;;;9.02;3.10;;;14.60;99.90;;;;;;4979774;28;21786;-63
2022/04/22 09:54:05;;;;;;;11.20;4.15;;;14.90;99.90;;;;;;4985647;28;20026;-63
2022/04/22 09:56:32;;;;;;;9.90;3.70;;;15.00;99.90;;;;;;4986917;28;20443;-63
2022/04/22 09:58:58;;;;;;;9.40;3.40;;;15.10;99.90;;;;;;4982658;28;20342;-63
2022/04/22 10:01:24;;;;;;;9.57;4.00;;;15.20;99.90;;;;;;4983187;28;20125;-63
2022/04/22 10:03:50;;;;;;;10.82;3.55;;;15.40;99.90;;;;;;5000962;28;20105;-63
2022/04/22 10:06:18;;;;;;;8.38;3.60;;;15.60;99.90;;;;;;4985309;28;20038;-64
2022/04/22 10:08:46;;;;;;;8.23;2.83;;;15.40;99.90;;;;;;4984029;28;20043;-64
2022/04/22 10:11:15;;;;;;;9.68;3.47;;;15.30;99.90;;;;;;4979011;28;20046;-64
2022/04/22 10:13:50;;;;;;;10.32;3.70;;;15.00;99.90;;;;;;4986239;28;20127;-64
2022/04/22 10:16:16;;;;;;;10.25;4.28;;;14.40;99.90;;;;;;4985364;28;20031;-64
2022/04/22 10:18:42;;;;;;;9.35;3.42;;;14.30;99.90;;;;;;4984754;28;20041;-64
2022/04/22 10:21:09;;;;;;;8.65;3.03;;;14.60;99.90;;;;;;4985935;28;20158;-64
2022/04/22 10:23:36;;;;;;;10.60;3.00;;;15.20;99.90;;;;;;4987065;28;20030;-64
2022/04/22 10:26:02;;;;;;;9.93;3.63;;;15.60;99.90;;;;;;4983649;28;20023;-64
2022/04/22 10:28:30;;;;;;;9.73;4.00;;;15.40;99.90;;;;;;4980920;28;20043;-64
2022/04/22 10:31:00;;;;;;;9.32;4.03;;;14.00;99.90;;;;;;4981657;28;20092;-64
2022/04/22 10:33:27;;;;;;;9.50;3.35;;;14.00;99.90;;;;;;4982319;28;20038;-63
2022/04/22 10:35:59;;;;;;;10.32;3.78;;;14.10;99.90;;;;;;4981464;28;20506;-63
2022/04/22 10:38:32;;;;;;;9.82;3.50;;;13.90;99.90;;;;;;4982766;28;20034;-63
2022/04/22 10:41:03;;;;;;;9.77;3.40;;;13.90;99.90;;;;;;4984386;28;20064;-63
2022/04/22 10:43:29;;;;;;;9.65;3.65;;;14.50;99.90;;;;;;4984548;28;20047;-63
2022/04/22 10:48:41;;;;;;;14.93;4.75;;;14.30;99.90;;;;;;4982030;28;20108;-63
2022/04/22 10:51:11;;;;;;;13.13;5.35;;;14.00;99.90;;;;;;4985055;28;20034;-63
2022/04/22 10:53:46;;;;;;;15.02;5.18;;;14.40;99.90;;;;;;4984732;28;20395;-63
2022/04/22 10:56:30;;;;;;;9.52;3.83;;;14.00;99.90;;;;;;4977407;28;20054;-64
2022/04/22 10:59:20;;;;;;;14.93;4.30;;;14.20;99.90;;;;;;4982641;28;20423;-63
2022/04/22 11:01:47;;;;;;;12.85;4.88;;;13.90;99.90;;;;;;4989951;28;20033;-64
2022/04/22 11:04:21;;;;;;;14.23;5.38;;;14.20;99.90;;;;;;4986010;28;20475;-64
2022/04/22 11:06:47;;;;;;;11.93;5.05;;;14.00;99.90;;;;;;4986200;28;20030;-64
2022/04/22 11:09:25;;;;;;;11.60;4.25;;;14.00;99.90;;;;;;4982680;28;20026;-64
2022/04/22 11:11:51;;;;;;;13.10;4.93;;;14.40;99.90;;;;;;4980258;28;20432;-64
2022/04/22 11:14:19;;;;;;;12.60;4.38;;;14.80;99.90;;;;;;4986741;28;20041;-64
2022/04/22 11:16:45;;;;;;;8.75;3.47;;;15.50;99.90;;;;;;4989461;28;20066;-64
2022/04/22 11:19:19;;;;;;;13.32;4.05;;;15.80;99.90;;;;;;4988196;28;20112;-64
2022/04/22 11:21:48;;;;;;;11.88;4.15;;;15.10;99.90;;;;;;4985284;28;20037;-64
2022/04/22 11:24:16;;;;;;;10.80;4.45;;;15.20;99.90;;;;;;4988879;28;20339;-64
2022/04/22 11:26:45;;;;;;;13.13;4.43;;;15.20;99.90;;;;;;4983985;28;20084;-64
2022/04/22 11:29:13;;;;;;;13.07;4.57;;;15.80;99.90;;;;;;4982053;28;20347;-64
2022/04/22 11:31:39;;;;;;;9.85;3.85;;;15.60;99.90;;;;;;4983455;28;20050;-64
2022/04/22 11:34:13;;;;;;;12.25;3.97;;;15.90;99.90;;;;;;4983466;28;20030;-64
2022/04/22 11:36:47;;;;;;;13.80;4.85;;;15.00;99.90;;;;;;4983760;28;20458;-64
2022/04/22 11:39:23;;;;;;;12.77;4.68;;;14.50;99.90;;;;;;4986054;28;20022;-64
2022/04/22 11:42:00;;;;;;;12.43;4.90;;;14.60;99.90;;;;;;4987873;28;20481;-64
2022/04/22 11:44:26;;;;;;;14.02;4.85;;;14.40;99.90;;;;;;4984539;28;20386;-64
2022/04/22 11:46:53;;;;;;;16.15;4.45;;;14.20;99.90;;;;;;4989253;28;20030;-64
2022/04/22 11:49:20;;;;;;;10.77;4.30;;;13.90;99.90;;;;;;4986045;28;20495;-64
2022/04/22 11:51:51;;;;;;;12.93;5.38;;;14.30;99.90;;;;;;4986486;28;20036;-64
2022/04/22 11:54:27;;;;;;;14.82;5.68;;;14.50;99.90;;;;;;4986290;28;20096;-64
2022/04/22 11:56:53;;;;;;;11.45;4.85;;;14.40;99.90;;;;;;4983840;28;20039;-64
2022/04/22 11:59:23;;;;;;;14.13;4.93;;;13.80;99.90;;;;;;4986107;28;20475;-64
2022/04/22 12:10:12;;;;;;;12.77;4.30;;;14.20;99.90;;;;;;4979280;28;20084;-63
2022/04/22 12:12:49;;;;;;;15.75;5.35;;;14.80;99.90;;;;;;4983584;28;20030;-63
2022/04/22 12:15:18;;;;;;;11.20;4.03;;;14.80;99.90;;;;;;4980675;28;20038;-63
2022/04/22 12:17:45;;;;;;;12.60;4.30;;;14.80;99.90;;;;;;4982044;28;20026;-63
2022/04/22 12:20:11;;;;;;;10.85;4.07;;;15.70;99.90;;;;;;4985248;28;20033;-63
2022/04/22 12:22:37;;;;;;;11.13;3.92;;;16.40;99.90;;;;;;4999831;28;20034;-63
2022/04/22 12:25:14;;;;;;;15.82;4.40;;;16.90;99.90;;;;;;4981848;28;20033;-64
2022/04/22 12:27:41;;;;;;;11.90;4.82;;;16.20;99.90;;;;;;4980431;28;20600;-64
2022/04/22 12:30:10;;;;;;;10.20;4.10;;;14.80;99.90;;;;;;4983174;28;20026;-63
2022/04/22 12:32:37;;;;;;;11.40;4.22;;;15.50;99.90;;;;;;4985028;28;20069;-63
2022/04/22 12:35:29;;;;;;;11.90;4.97;;;15.20;99.90;;;;;;4978528;28;20456;-63
2022/04/22 12:37:56;;;;;;;11.30;4.45;;;15.10;99.90;;;;;;4986111;28;20062;-63
2022/04/22 12:40:22;;;;;;;12.80;5.13;;;15.70;99.90;;;;;;4985030;28;20048;-63
2022/04/22 12:42:51;;;;;;;11.32;3.92;;;15.10;99.90;;;;;;4983672;28;20023;-63
2022/04/22 12:54:03;;;;;;;14.10;4.95;;;16.00;99.90;;;;;;4981980;28;20105;-63
2022/04/22 12:56:29;;;;;;;13.02;4.75;;;15.80;99.90;;;;;;4977713;28;20034;-64
2022/04/22 12:58:56;;;;;;;11.30;4.10;;;14.90;99.90;;;;;;4983281;28;20807;-64
2022/04/22 13:01:36;;;;;;;11.45;4.38;;;14.50;99.90;;;;;;4981008;28;20112;-64
2022/04/22 13:04:03;;;;;;;8.98;3.47;;;14.50;99.90;;;;;;4985000;28;20022;-64
2022/04/22 13:06:43;;;;;;;13.80;3.80;;;14.90;99.90;;;;;;4980467;28;20042;-64
2022/04/22 13:09:11;;;;;;;13.25;4.28;;;15.90;99.90;;;;;;4982929;28;20026;-64
2022/04/22 13:11:37;;;;;;;12.18;4.10;;;16.10;99.90;;;;;;4981324;28;20105;-64
2022/04/22 13:14:04;;;;;;;12.25;4.40;;;15.90;99.90;;;;;;4981972;28;20476;-64
2022/04/22 13:16:29;;;;;;;10.90;4.30;;;14.60;99.90;;;;;;4985680;28;20026;-64
2022/04/22 13:18:56;;;;;;;9.40;3.85;;;14.50;99.90;;;;;;4988798;28;20429;-64
2022/04/22 13:21:22;;;;;;;14.23;4.32;;;14.80;99.90;;;;;;4985374;28;20408;-64
2022/04/22 13:23:47;;;;;;;13.32;4.53;;;15.30;99.90;;;;;;4978236;28;20035;-64
2022/04/22 13:26:13;;;;;;;9.85;4.03;;;16.00;99.90;;;;;;4981345;28;20651;-64
2022/04/22 13:28:39;;;;;;;12.25;4.88;;;17.00;99.90;;;;;;4983808;28;20062;-64
2022/04/22 13:31:04;;;;;;;13.50;4.93;;;17.30;99.90;;;;;;4983490;28;20042;-64
2022/04/22 13:33:32;;;;;;;12.02;4.72;;;16.70;99.90;;;;;;4974760;28;20034;-64
2022/04/22 13:36:07;;;;;;;12.02;4.50;;;17.70;99.90;;;;;;4986019;28;20546;-64
2022/04/22 13:38:34;;;;;;;13.23;4.25;;;17.90;99.90;;;;;;4984515;28;20030;-64
2022/04/22 13:41:01;;;;;;;10.23;4.20;;;18.30;99.30;;;;;;4987310;28;20034;-64
2022/04/22 13:43:33;;;;;;;10.88;4.82;;;17.10;99.90;;;;;;4986149;28;20089;-64
2022/04/22 13:54:14;;;;;;;14.10;6.00;;;19.90;96.40;;;;;;4984391;28;20042;-64
2022/04/22 13:56:40;;;;;;;10.25;3.63;;;17.70;98.40;;;;;;4987609;28;20030;-64
2022/04/22 13:59:05;;;;;;;11.25;4.13;;;19.10;97.70;;;;;;4988148;28;20026;-64
2022/04/22 14:01:31;;;;;;;11.73;4.55;;;;;;;;;;4988751;28;20550;-64